Terminal Aerodrome Forecast
Issued by NWS Shreveport, LA

Home | Current Version | Previous Version | Text Only | Print | Product List | Glossary On
Versions: 1 2 3 4 5 6 7 8 9 10 11 12 13 14
125
FTUS44 KSHV 141739
TAFGGG
TAF
KGGG 141739Z 1418/1518 03008KT P6SM SCT120 BKN200
     FM150000 35006KT P6SM SCT250
     FM150500 35005KT P6SM BKN250=

USA.gov is the U.S. government's official web portal to all federal, state and local government web resources and services.